Neptune Horizon — 9HA3929 — position and weather

sailwx.info

Track history (hours):
 
Tides and Currents Weather Stations Pressure Air Temp Water Temp Dewpoint Dewpoint Depression Visibility Wind Speed Wind Dir Waves Ship Positions

Neptune Horizon

Last reported at 2017-Sep-25 01:00 UTC. Time now 2017-Sep-25 01:08 UTC.
Position N 44°07' E 028°48'.

Length 168 m; draft 8 m.

Type: Other ship. MMSI: 256488000.

Date/timePositionNaut miles runAvg speedWind from/ knotsBaromVisibWave heightAir tempDewpointWater temp
2017-Sep-25 01:00N 44°07' E 028°48'0 0.0
2017-Sep-25 00:30N 44°07' E 028°48'0 0.0
2017-Sep-25 00:00N 44°07' E 028°48'0 0.0
2017-Sep-24 23:30N 44°07' E 028°48'0 0.0
2017-Sep-24 23:00N 44°07' E 028°48'0 0.0
2017-Sep-24 22:30N 44°07' E 028°48'0 0.0
2017-Sep-24 22:00N 44°07' E 028°48'0 0.0
2017-Sep-24 21:30N 44°07' E 028°48'0 0.0
2017-Sep-24 21:00N 44°07' E 028°48'0 0.1
2017-Sep-24 20:30N 44°07' E 028°48'1 2.9
2017-Sep-24 20:00N 44°05' E 028°48'4 8.7
2017-Sep-24 19:30N 44°01' E 028°50'613.0
2017-Sep-24 19:00N 43°55' E 028°51'713.5
2017-Sep-24 18:30N 43°48' E 028°52'713.1
2017-Sep-24 18:00N 43°42' E 028°53'713.1
2017-Sep-24 17:30N 43°35' E 028°54'815.1
2017-Sep-24 17:00N 43°28' E 028°56'  
2017-Sep-21 20:11N 37°37' E 024°09'916.4
2017-Sep-21 19:38N 37°35' E 023°58'617.4
2017-Sep-21 19:16N 37°35' E 023°50'415.2
2017-Sep-21 19:01N 37°36' E 023°45'917.5
2017-Sep-21 18:31N 37°44' E 023°41'816.5
2017-Sep-21 18:01N 37°51' E 023°37'612.0
2017-Sep-21 17:30N 37°57' E 023°36'0 0.6
2017-Sep-21 16:58N 37°58' E 023°36'0 0.0
2017-Sep-21 16:28N 37°58' E 023°36'0 0.0
2017-Sep-21 15:55N 37°58' E 023°36'0 0.0
2017-Sep-21 15:28N 37°58' E 023°36'0 0.0
2017-Sep-21 14:58N 37°58' E 023°36'0 0.0
2017-Sep-21 14:28N 37°58' E 023°36'0 0.0
2017-Sep-21 13:58N 37°58' E 023°36'0 0.0
2017-Sep-21 13:28N 37°58' E 023°36'0 0.0
2017-Sep-21 12:58N 37°58' E 023°36'0 0.0
2017-Sep-21 12:28N 37°58' E 023°36'0 0.0
2017-Sep-21 11:58N 37°58' E 023°36'0 0.0
2017-Sep-21 11:28N 37°58' E 023°36'0 0.0
2017-Sep-21 10:58N 37°58' E 023°36'0 0.0
2017-Sep-21 10:28N 37°58' E 023°36'0 0.0
2017-Sep-21 09:58N 37°58' E 023°36'0 0.0
2017-Sep-21 09:28N 37°58' E 023°36'0 0.0
2017-Sep-21 08:59N 37°58' E 023°36'0 0.0
2017-Sep-21 08:28N 37°58' E 023°36'0 0.0
2017-Sep-21 07:58N 37°58' E 023°36'0 0.0
2017-Sep-21 07:28N 37°58' E 023°36'0 0.0
2017-Sep-21 06:58N 37°58' E 023°36'0 0.0
2017-Sep-21 06:28N 37°58' E 023°36'0 0.0
2017-Sep-21 05:55N 37°58' E 023°36'0 0.0
2017-Sep-21 05:28N 37°58' E 023°36'0 0.0
2017-Sep-21 04:58N 37°58' E 023°36'0 0.8
2017-Sep-21 04:30N 37°57' E 023°36'3 6.5
2017-Sep-21 04:00N 37°54' E 023°36'1 1.5
2017-Sep-21 03:31N 37°54' E 023°37'1 1.5
2017-Sep-21 03:01N 37°53' E 023°37'3 6.4
2017-Sep-21 02:30N 37°50' E 023°39'5 9.5
2017-Sep-21 02:00N 37°46' E 023°42'611.6
2017-Sep-21 01:30N 37°41' E 023°45'612.2
2017-Sep-21 01:00N 37°35' E 023°46'611.9
2017-Sep-21 00:30N 37°29' E 023°46'2711.6
2017-Sep-20 22:09N 37°04' E 023°31'211.3
2017-Sep-20 21:59N 37°02' E 023°30'40713.3
2017-Sep-19 15:20N 36°33' E 015°03'515.0
2017-Sep-19 15:00N 36°34' E 014°57'815.3
2017-Sep-19 14:30N 36°35' E 014°48'816.4
2017-Sep-19 13:59N 36°37' E 014°37'1018.6
2017-Sep-19 13:26N 36°40' E 014°25'1119.7
2017-Sep-19 12:53N 36°42' E 014°12'3019.6
2017-Sep-19 11:22N 36°48' E 013°36'919.2
2017-Sep-19 10:53N 36°50' E 013°24'818.9
2017-Sep-19 10:29N 36°51' E 013°15'918.9
2017-Sep-19 10:00N 36°53' E 013°04'918.9
2017-Sep-19 09:30N 36°55' E 012°52'1019.0
2017-Sep-19 09:00N 36°57' E 012°40'919.0
2017-Sep-19 08:30N 36°59' E 012°29'1019.1
2017-Sep-19 07:59N 37°01' E 012°17'919.2
2017-Sep-19 07:30N 37°03' E 012°05'336 6.6
2017-Sep-17 04:40N 42°30' E 010°23'614.9
2017-Sep-17 04:15N 42°34' E 010°17'2114.9
2017-Sep-17 02:49N 42°43' E 009°51'1813.6
2017-Sep-17 01:28N 42°59' E 009°36'814.6
2017-Sep-17 00:54N 43°06' E 009°30'614.3
2017-Sep-17 00:30N 43°08' E 009°23'815.9
2017-Sep-17 00:00N 43°06' E 009°13'815.8
2017-Sep-16 23:29N 43°05' E 009°02'6116.4
2017-Sep-16 19:45N 42°57' E 007°39'4815.6
2017-Sep-16 16:42N 42°50' E 006°34'2915.2
2017-Sep-16 14:46N 42°50' E 005°54'615.2
2017-Sep-16 14:20N 42°50' E 005°45'514.8
2017-Sep-16 14:00N 42°52' E 005°39'815.1
2017-Sep-16 13:31N 42°57' E 005°31'815.2
2017-Sep-16 13:01N 43°01' E 005°22'815.9
2017-Sep-16 12:30N 43°05' E 005°13'816.1
2017-Sep-16 12:00N 43°10' E 005°04'815.4
2017-Sep-16 11:30N 43°17' E 004°60'713.3
2017-Sep-16 11:00N 43°23' E 004°56'4 8.6
2017-Sep-16 10:30N 43°24' E 004°51'0 0.1
2017-Sep-16 09:58N 43°24' E 004°51'0 0.0
2017-Sep-16 09:28N 43°24' E 004°51'0 0.0
2017-Sep-16 08:55N 43°24' E 004°51'0 0.0
2017-Sep-16 08:28N 43°24' E 004°51'0 0.0
2017-Sep-16 07:58N 43°24' E 004°51'0 0.0
2017-Sep-16 07:28N 43°24' E 004°51'0 0.0
2017-Sep-16 06:58N 43°24' E 004°51'0 0.0
2017-Sep-16 06:28N 43°24' E 004°51'0 0.0
2017-Sep-16 05:58N 43°24' E 004°51'0 0.0
2017-Sep-16 05:28N 43°24' E 004°51'0 0.0
2017-Sep-16 04:58N 43°24' E 004°51'0 0.0
2017-Sep-16 04:28N 43°24' E 004°51'0 0.0
2017-Sep-16 03:52N 43°24' E 004°51'0 0.0
2017-Sep-16 03:28N 43°24' E 004°51'0 0.1
2017-Sep-16 03:00N 43°24' E 004°51'3 6.3
2017-Sep-16 02:30N 43°24' E 004°55'5 9.8
2017-Sep-16 02:00N 43°20' E 004°59'4 7.3
2017-Sep-16 01:30N 43°16' E 005°01'4 8.5
2017-Sep-16 01:01N 43°12' E 005°02'4 8.0
2017-Sep-16 00:30N 43°08' E 005°01'510.3
2017-Sep-16 00:01N 43°05' E 004°56'510.6
2017-Sep-15 23:30N 43°01' E 004°51'713.1
2017-Sep-15 23:01N 42°56' E 004°45'815.4
2017-Sep-15 22:30N 42°50' E 004°38'815.3
2017-Sep-15 22:00N 42°44' E 004°31'815.4
2017-Sep-15 21:30N 42°39' E 004°24'12915.1
2017-Sep-15 12:56N 41°16' E 002°12'3 0.3
2017-Sep-15 02:16N 41°19' E 002°10'  
Track history (hours):
 
Tides and Currents Weather Stations Pressure Air Temp Water Temp Dewpoint Dewpoint Depression Visibility Wind Speed Wind Dir Waves Ship Positions

Neptune Horizon

Last reported at 2017-Sep-25 01:00 UTC. Time now 2017-Sep-25 01:08 UTC.
Position N 44°07' E 028°48'.

Length 168 m; draft 8 m.

Type: Other ship. MMSI: 256488000.

Date/timePositionNaut miles runAvg speedWind from/ knotsBaromVisibWave heightAir tempDewpointWater temp
2017-Sep-25 01:00N 44°07' E 028°48'0 0.0
2017-Sep-25 00:30N 44°07' E 028°48'0 0.0
2017-Sep-25 00:00N 44°07' E 028°48'0 0.0
2017-Sep-24 23:30N 44°07' E 028°48'0 0.0
2017-Sep-24 23:00N 44°07' E 028°48'0 0.0
2017-Sep-24 22:30N 44°07' E 028°48'0 0.0
2017-Sep-24 22:00N 44°07' E 028°48'0 0.0
2017-Sep-24 21:30N 44°07' E 028°48'0 0.0
2017-Sep-24 21:00N 44°07' E 028°48'0 0.1
2017-Sep-24 20:30N 44°07' E 028°48'1 2.9
2017-Sep-24 20:00N 44°05' E 028°48'4 8.7
2017-Sep-24 19:30N 44°01' E 028°50'613.0
2017-Sep-24 19:00N 43°55' E 028°51'713.5
2017-Sep-24 18:30N 43°48' E 028°52'713.1
2017-Sep-24 18:00N 43°42' E 028°53'713.1
2017-Sep-24 17:30N 43°35' E 028°54'815.1
2017-Sep-24 17:00N 43°28' E 028°56'  
2017-Sep-21 20:11N 37°37' E 024°09'916.4
2017-Sep-21 19:38N 37°35' E 023°58'617.4
2017-Sep-21 19:16N 37°35' E 023°50'415.2
2017-Sep-21 19:01N 37°36' E 023°45'917.5
2017-Sep-21 18:31N 37°44' E 023°41'816.5
2017-Sep-21 18:01N 37°51' E 023°37'612.0
2017-Sep-21 17:30N 37°57' E 023°36'0 0.6
2017-Sep-21 16:58N 37°58' E 023°36'0 0.0
2017-Sep-21 16:28N 37°58' E 023°36'0 0.0
2017-Sep-21 15:55N 37°58' E 023°36'0 0.0
2017-Sep-21 15:28N 37°58' E 023°36'0 0.0
2017-Sep-21 14:58N 37°58' E 023°36'0 0.0
2017-Sep-21 14:28N 37°58' E 023°36'0 0.0
2017-Sep-21 13:58N 37°58' E 023°36'0 0.0
2017-Sep-21 13:28N 37°58' E 023°36'0 0.0
2017-Sep-21 12:58N 37°58' E 023°36'0 0.0
2017-Sep-21 12:28N 37°58' E 023°36'0 0.0
2017-Sep-21 11:58N 37°58' E 023°36'0 0.0
2017-Sep-21 11:28N 37°58' E 023°36'0 0.0
2017-Sep-21 10:58N 37°58' E 023°36'0 0.0
2017-Sep-21 10:28N 37°58' E 023°36'0 0.0
2017-Sep-21 09:58N 37°58' E 023°36'0 0.0
2017-Sep-21 09:28N 37°58' E 023°36'0 0.0
2017-Sep-21 08:59N 37°58' E 023°36'0 0.0
2017-Sep-21 08:28N 37°58' E 023°36'0 0.0
2017-Sep-21 07:58N 37°58' E 023°36'0 0.0
2017-Sep-21 07:28N 37°58' E 023°36'0 0.0
2017-Sep-21 06:58N 37°58' E 023°36'0 0.0
2017-Sep-21 06:28N 37°58' E 023°36'0 0.0
2017-Sep-21 05:55N 37°58' E 023°36'0 0.0
2017-Sep-21 05:28N 37°58' E 023°36'0 0.0
2017-Sep-21 04:58N 37°58' E 023°36'0 0.8
2017-Sep-21 04:30N 37°57' E 023°36'3 6.5
2017-Sep-21 04:00N 37°54' E 023°36'1 1.5
2017-Sep-21 03:31N 37°54' E 023°37'1 1.5
2017-Sep-21 03:01N 37°53' E 023°37'3 6.4
2017-Sep-21 02:30N 37°50' E 023°39'5 9.5
2017-Sep-21 02:00N 37°46' E 023°42'611.6
2017-Sep-21 01:30N 37°41' E 023°45'612.2
2017-Sep-21 01:00N 37°35' E 023°46'611.9
2017-Sep-21 00:30N 37°29' E 023°46'2711.6
2017-Sep-20 22:09N 37°04' E 023°31'211.3
2017-Sep-20 21:59N 37°02' E 023°30'40713.3
2017-Sep-19 15:20N 36°33' E 015°03'515.0
2017-Sep-19 15:00N 36°34' E 014°57'815.3
2017-Sep-19 14:30N 36°35' E 014°48'816.4
2017-Sep-19 13:59N 36°37' E 014°37'1018.6
2017-Sep-19 13:26N 36°40' E 014°25'1119.7
2017-Sep-19 12:53N 36°42' E 014°12'3019.6
2017-Sep-19 11:22N 36°48' E 013°36'919.2
2017-Sep-19 10:53N 36°50' E 013°24'818.9
2017-Sep-19 10:29N 36°51' E 013°15'918.9
2017-Sep-19 10:00N 36°53' E 013°04'918.9
2017-Sep-19 09:30N 36°55' E 012°52'1019.0
2017-Sep-19 09:00N 36°57' E 012°40'919.0
2017-Sep-19 08:30N 36°59' E 012°29'1019.1
2017-Sep-19 07:59N 37°01' E 012°17'919.2
2017-Sep-19 07:30N 37°03' E 012°05'336 6.6
2017-Sep-17 04:40N 42°30' E 010°23'614.9
2017-Sep-17 04:15N 42°34' E 010°17'2114.9
2017-Sep-17 02:49N 42°43' E 009°51'1813.6
2017-Sep-17 01:28N 42°59' E 009°36'814.6
2017-Sep-17 00:54N 43°06' E 009°30'614.3
2017-Sep-17 00:30N 43°08' E 009°23'815.9
2017-Sep-17 00:00N 43°06' E 009°13'815.8
2017-Sep-16 23:29N 43°05' E 009°02'6116.4
2017-Sep-16 19:45N 42°57' E 007°39'4815.6
2017-Sep-16 16:42N 42°50' E 006°34'2915.2
2017-Sep-16 14:46N 42°50' E 005°54'615.2
2017-Sep-16 14:20N 42°50' E 005°45'514.8
2017-Sep-16 14:00N 42°52' E 005°39'815.1
2017-Sep-16 13:31N 42°57' E 005°31'815.2
2017-Sep-16 13:01N 43°01' E 005°22'815.9
2017-Sep-16 12:30N 43°05' E 005°13'816.1
2017-Sep-16 12:00N 43°10' E 005°04'815.4
2017-Sep-16 11:30N 43°17' E 004°60'713.3
2017-Sep-16 11:00N 43°23' E 004°56'4 8.6
2017-Sep-16 10:30N 43°24' E 004°51'0 0.1
2017-Sep-16 09:58N 43°24' E 004°51'0 0.0
2017-Sep-16 09:28N 43°24' E 004°51'0 0.0
2017-Sep-16 08:55N 43°24' E 004°51'0 0.0
2017-Sep-16 08:28N 43°24' E 004°51'0 0.0
2017-Sep-16 07:58N 43°24' E 004°51'0 0.0
2017-Sep-16 07:28N 43°24' E 004°51'0 0.0
2017-Sep-16 06:58N 43°24' E 004°51'0 0.0
2017-Sep-16 06:28N 43°24' E 004°51'0 0.0
2017-Sep-16 05:58N 43°24' E 004°51'0 0.0
2017-Sep-16 05:28N 43°24' E 004°51'0 0.0
2017-Sep-16 04:58N 43°24' E 004°51'0 0.0
2017-Sep-16 04:28N 43°24' E 004°51'0 0.0
2017-Sep-16 03:52N 43°24' E 004°51'0 0.0
2017-Sep-16 03:28N 43°24' E 004°51'0 0.1
2017-Sep-16 03:00N 43°24' E 004°51'3 6.3
2017-Sep-16 02:30N 43°24' E 004°55'5 9.8
2017-Sep-16 02:00N 43°20' E 004°59'4 7.3
2017-Sep-16 01:30N 43°16' E 005°01'4 8.5
2017-Sep-16 01:01N 43°12' E 005°02'4 8.0
2017-Sep-16 00:30N 43°08' E 005°01'510.3
2017-Sep-16 00:01N 43°05' E 004°56'510.6
2017-Sep-15 23:30N 43°01' E 004°51'713.1
2017-Sep-15 23:01N 42°56' E 004°45'815.4
2017-Sep-15 22:30N 42°50' E 004°38'815.3
2017-Sep-15 22:00N 42°44' E 004°31'815.4
2017-Sep-15 21:30N 42°39' E 004°24'12915.1
2017-Sep-15 12:56N 41°16' E 002°12'3 0.3
2017-Sep-15 02:16N 41°19' E 002°10'  

Dump ship's entire track history